Peotone Weather

Nearby METAR Reports

 

KIGQ - Lansing, Illinois, USA
Distance from station: NE 19mi, 30km
Updated: Sun, 20-Oct-2019 4:35am CDT
Overcast
Overcast
 Wind from calm
Wind: Calm
Temperature: 54°F , 12°C
Dew Point: 52°F , 11°C
Humidity: 94%
Barometer: 29.81 inHg , 1009.5 hPa
Clouds: Overcast
Visibility: 10 miles , 16 km
Cloud details: Mostly cloudy 3400 ft
Overcast 4000 ft
2019/10/20 09:35 KIGQ 200935Z AUTO 00000KT 10SM BKN034 OVC040 12/11 A2981 RMK AO2 T01210105
KIKK - Kankakee, Illinois, USA
Distance from station: S 19mi, 30km
Updated: Sun, 20-Oct-2019 4:15am CDT
Overcast
Overcast
 Wind from WNW
Wind: WNW 7 mph , 11 km/h
Temperature: 54°F , 12°C
Dew Point: 52°F , 11°C
Humidity: 94%
Barometer: 29.82 inHg , 1009.8 hPa
Clouds: Overcast
Visibility: 10 miles , 16 km
Cloud details: Partly cloudy 3000 ft
Overcast 5000 ft
2019/10/20 09:15 KIKK 200915Z AUTO 29006KT 10SM SCT030 OVC050 12/11 A2982 RMK AO2 T01150105
 
KSJC - Joliet, Illinois, USA
Distance from station: WNW 24mi, 38km
Updated: Sun, 20-Oct-2019 4:11am CDT
Few Clouds
Few Clouds
 Wind from calm
Wind: Calm
Temperature: 54°F , 12°C
Dew Point: 52°F , 11°C
Humidity: 94%
Barometer: 30.08 inHg , 1018.6 hPa
Clouds: Few Clouds
Visibility: 10 miles , 16 km
Cloud details: Few Clouds 800 ft
2019/10/20 09:11 KSJC 200911Z AUTO 00000KT 10SM FEW008 12/11 A3008 RMK AO2 T01220111
KLOT - Romeoville, Illinois, USA
Distance from station: NW 26mi, 41km
Updated: Sun, 20-Oct-2019 4:35am CDT
Overcast
Overcast
 Wind from NW
Wind: NW 10 mph , 17 km/h
Temperature: 54°F , 12°C
Dew Point: 50°F , 10°C
Humidity: 88%
Barometer: 29.82 inHg , 1009.8 hPa
Clouds: Overcast
Visibility: 10 miles , 16 km
Cloud details: Overcast 1200 ft
2019/10/20 09:35 KLOT 200935Z AUTO 32009KT 10SM OVC012 12/10 A2982 RMK AO2 T01180101
 
KMDW - Midway Airport Chicago, Illinois, USA
Distance from station: N 31mi, 50km
Updated: Sun, 20-Oct-2019 3:53am CDT
NOT Current
Overcast
Overcast
 Wind from calm
Wind: Calm
Temperature: 55°F , 13°C
Dew Point: 50°F , 10°C
Humidity: 82%
Barometer: 29.78 inHg , 1008.5 hPa
Clouds: Overcast
Visibility: 10 miles , 16 km
Cloud details: Mostly cloudy 2500 ft
Overcast 3300 ft
2019/10/20 08:53 KMDW 200853Z 00000KT 10SM BKN025 OVC033 13/10 A2978 RMK AO2 SLP082 T01330100 51007
KC09 - Morris, Illinois, USA
Distance from station: W 34mi, 54km
Updated: Sun, 20-Oct-2019 4:35am CDT
Overcast
Overcast
 Wind from NNW
Wind: NNW 6 mph , 9 km/h
Temperature: 54°F , 12°C
Dew Point: 52°F , 11°C
Humidity: 94%
Barometer: 29.82 inHg , 1009.8 hPa
Clouds: Overcast
Visibility: 10 miles , 16 km
Cloud details: Overcast 900 ft
2019/10/20 09:35 KC09 200935Z AUTO 33005KT 10SM OVC009 12/11 A2982 RMK AO2 T01160107

Metar display script from Saratoga-Weather.org